Portada
METAR-TAF:

METAR-TAF

Aeroports :

N'Djamena, Txad

latitud: 12-08N, longitud: 015-02E, altitud: 295 m

Observació

L'informe es va fer fa 1 hora i 11 minuts, a les 09:00 UTC
Vent 6 kt del Sud-Est, variant entre Sud-Est i Sud-Oest
Temperatura 36°C
Humitat 27%
Pressió 1010 hPa
Visibilitat: 6000 m

METAR: FTTJ 220900Z 14006KT 140V220 6000 NSC 36/14 Q1010 NOSIG

Hora: 11:11 (10:11 UTC)

Pronòstic

L'informe es va fer fa 5 hores i 11 minuts, a les 05:00 UTC
Pronòstic vàlid del 22 a les 06 UTC al 23 a les 12 UTC
Vent 4 kt amb direcció variable
Visibilitat: 8000 m
Temporalment
l' 22 a les 06 UTC al 22 a les 08 UTC
Visibilitat: 4000 m
calitja
Temporalment
l' 22 a les 16 UTC al 22 a les 19 UTC
Visibilitat: 4000 m
calitja

TAF: FTTJ 220500Z 2206/2312 VRB04KT 8000 NSC TEMPO 2206/2208 4000 HZ TEMPO 2216/2219 4000 HZ

Observacions i pronòstics meteorològics de més de 4000 aeroports (METAR i TAF).

Les estacions disponibles són els punts grocs i vermells al mapa.

Posi el ratolí al punt desitjat per veure el nom de l'estació.

Feu clic per veure les observacions i els pronòstics meteorològics.

Per canviar el mapa: feu clic els botons verds amb una creu de color negre per apropar; al botó verd amb un guió per allunyar la imatge; o en les fletxes verdes per a mapes adjacents.


METAR-TAF: